sensor_id;sensor_type;location;lat;lon;timestamp;pressure;altitude;pressure_sealevel;temperature;humidity
22025;BME280;11176;51.448;6.650;2023-05-14T00:00:20;41647.31;;;-141.29;100.00
22025;BME280;11176;51.448;6.650;2023-05-14T00:02:47;41643.31;;;-141.29;100.00
22025;BME280;11176;51.448;6.650;2023-05-14T00:05:13;41639.31;;;-141.29;100.00
22025;BME280;11176;51.448;6.650;2023-05-14T00:07:40;41623.34;;;-141.29;100.00
22025;BME280;11176;51.448;6.650;2023-05-14T00:10:07;41633.34;;;-141.29;100.00
22025;BME280;11176;51.448;6.650;2023-05-14T00:12:34;41655.28;;;-141.29;100.00
22025;BME280;11176;51.448;6.650;2023-05-14T00:15:00;41619.38;;;-141.29;100.00
22025;BME280;11176;51.448;6.650;2023-05-14T00:17:27;41633.34;;;-141.29;100.00
22025;BME280;11176;51.448;6.650;2023-05-14T00:19:53;41639.31;;;-141.29;100.00
22025;BME280;11176;51.448;6.650;2023-05-14T00:22:19;41631.34;;;-141.29;100.00
22025;BME280;11176;51.448;6.650;2023-05-14T00:24:46;41635.34;;;-141.29;100.00
22025;BME280;11176;51.448;6.650;2023-05-14T00:27:13;41645.31;;;-141.29;100.00
22025;BME280;11176;51.448;6.650;2023-05-14T00:29:39;41675.25;;;-141.29;100.00
22025;BME280;11176;51.448;6.650;2023-05-14T00:32:06;41639.31;;;-141.29;100.00
22025;BME280;11176;51.448;6.650;2023-05-14T00:34:34;41667.28;;;-141.29;100.00
22025;BME280;11176;51.448;6.650;2023-05-14T00:37:00;41679.25;;;-141.29;100.00
22025;BME280;11176;51.448;6.650;2023-05-14T00:39:27;41681.25;;;-141.29;100.00
22025;BME280;11176;51.448;6.650;2023-05-14T00:41:54;41731.16;;;-141.29;100.00
22025;BME280;11176;51.448;6.650;2023-05-14T00:44:21;41723.16;;;-141.29;100.00
22025;BME280;11176;51.448;6.650;2023-05-14T00:46:47;41725.16;;;-141.29;100.00
22025;BME280;11176;51.448;6.650;2023-05-14T00:49:14;41713.19;;;-141.29;100.00
22025;BME280;11176;51.448;6.650;2023-05-14T00:51:41;41703.19;;;-141.29;100.00
22025;BME280;11176;51.448;6.650;2023-05-14T00:54:14;41699.22;;;-141.29;100.00
22025;BME280;11176;51.448;6.650;2023-05-14T00:56:45;41699.22;;;-141.29;100.00
22025;BME280;11176;51.448;6.650;2023-05-14T00:59:12;41719.16;;;-141.29;100.00
22025;BME280;11176;51.448;6.650;2023-05-14T01:01:39;41719.16;;;-141.29;100.00
22025;BME280;11176;51.448;6.650;2023-05-14T01:04:06;41731.16;;;-141.29;100.00
22025;BME280;11176;51.448;6.650;2023-05-14T01:09:20;41729.16;;;-141.29;100.00
22025;BME280;11176;51.448;6.650;2023-05-14T01:11:56;41717.19;;;-141.29;100.00
22025;BME280;11176;51.448;6.650;2023-05-14T01:14:37;41717.19;;;-141.29;100.00
22025;BME280;11176;51.448;6.650;2023-05-14T01:17:08;41727.16;;;-141.29;100.00
22025;BME280;11176;51.448;6.650;2023-05-14T01:19:39;41761.09;;;-141.29;100.00
22025;BME280;11176;51.448;6.650;2023-05-14T01:22:06;41745.13;;;-141.29;100.00
22025;BME280;11176;51.448;6.650;2023-05-14T01:24:33;41783.06;;;-141.29;100.00
22025;BME280;11176;51.448;6.650;2023-05-14T01:27:10;41828.97;;;-141.29;100.00
22025;BME280;11176;51.448;6.650;2023-05-14T01:29:45;41842.94;;;-141.29;100.00
22025;BME280;11176;51.448;6.650;2023-05-14T01:32:15;41842.94;;;-141.29;100.00
22025;BME280;11176;51.448;6.650;2023-05-14T01:34:43;41854.91;;;-141.29;100.00
22025;BME280;11176;51.448;6.650;2023-05-14T01:37:13;41838.94;;;-141.29;100.00
22025;BME280;11176;51.448;6.650;2023-05-14T01:39:41;41826.97;;;-141.29;100.00
22025;BME280;11176;51.448;6.650;2023-05-14T01:42:08;41807.00;;;-141.29;100.00
22025;BME280;11176;51.448;6.650;2023-05-14T01:44:35;41818.97;;;-141.29;100.00
22025;BME280;11176;51.448;6.650;2023-05-14T01:47:01;41824.97;;;-141.29;100.00
22025;BME280;11176;51.448;6.650;2023-05-14T01:49:28;41820.97;;;-141.29;100.00
22025;BME280;11176;51.448;6.650;2023-05-14T01:51:55;41807.00;;;-141.29;100.00
22025;BME280;11176;51.448;6.650;2023-05-14T01:54:21;41824.97;;;-141.29;100.00
22025;BME280;11176;51.448;6.650;2023-05-14T01:56:48;41803.00;;;-141.29;100.00
22025;BME280;11176;51.448;6.650;2023-05-14T01:59:15;41797.03;;;-141.29;100.00
22025;BME280;11176;51.448;6.650;2023-05-14T02:01:42;41795.03;;;-141.29;100.00
22025;BME280;11176;51.448;6.650;2023-05-14T02:04:08;41791.03;;;-141.29;100.00
22025;BME280;11176;51.448;6.650;2023-05-14T02:06:35;41783.06;;;-141.29;100.00
22025;BME280;11176;51.448;6.650;2023-05-14T02:09:02;41783.06;;;-141.29;100.00
22025;BME280;11176;51.448;6.650;2023-05-14T02:11:30;41775.06;;;-141.29;100.00
22025;BME280;11176;51.448;6.650;2023-05-14T02:13:56;41785.06;;;-141.29;100.00
22025;BME280;11176;51.448;6.650;2023-05-14T02:16:22;41787.03;;;-141.29;100.00
22025;BME280;11176;51.448;6.650;2023-05-14T02:18:50;41767.09;;;-141.29;100.00
22025;BME280;11176;51.448;6.650;2023-05-14T02:21:16;41783.06;;;-141.29;100.00
22025;BME280;11176;51.448;6.650;2023-05-14T02:23:43;41779.06;;;-141.29;100.00
22025;BME280;11176;51.448;6.650;2023-05-14T02:26:10;41783.06;;;-141.29;100.00
22025;BME280;11176;51.448;6.650;2023-05-14T02:28:36;41795.03;;;-141.29;100.00
22025;BME280;11176;51.448;6.650;2023-05-14T02:31:03;41779.06;;;-141.29;100.00
22025;BME280;11176;51.448;6.650;2023-05-14T02:33:29;41828.97;;;-141.29;100.00
22025;BME280;11176;51.448;6.650;2023-05-14T02:35:56;41789.03;;;-141.29;100.00
22025;BME280;11176;51.448;6.650;2023-05-14T02:38:22;41787.03;;;-141.29;100.00
22025;BME280;11176;51.448;6.650;2023-05-14T02:40:49;41836.94;;;-141.29;100.00
22025;BME280;11176;51.448;6.650;2023-05-14T02:43:15;41815.00;;;-141.29;100.00
22025;BME280;11176;51.448;6.650;2023-05-14T02:45:42;41803.00;;;-141.29;100.00
22025;BME280;11176;51.448;6.650;2023-05-14T02:48:08;41844.94;;;-141.29;100.00
22025;BME280;11176;51.448;6.650;2023-05-14T02:50:34;41868.91;;;-141.29;100.00
22025;BME280;11176;51.448;6.650;2023-05-14T02:53:01;41874.88;;;-141.29;100.00
22025;BME280;11176;51.448;6.650;2023-05-14T02:55:28;41894.84;;;-141.29;100.00
22025;BME280;11176;51.448;6.650;2023-05-14T02:57:55;41894.84;;;-141.29;100.00
22025;BME280;11176;51.448;6.650;2023-05-14T03:00:22;41918.81;;;-141.29;100.00
22025;BME280;11176;51.448;6.650;2023-05-14T03:02:49;41930.78;;;-141.29;100.00
22025;BME280;11176;51.448;6.650;2023-05-14T03:05:16;41934.78;;;-141.29;100.00
22025;BME280;11176;51.448;6.650;2023-05-14T03:07:42;41938.75;;;-141.29;100.00
22025;BME280;11176;51.448;6.650;2023-05-14T03:10:09;41970.72;;;-141.29;100.00
22025;BME280;11176;51.448;6.650;2023-05-14T03:12:36;41964.72;;;-141.29;100.00
22025;BME280;11176;51.448;6.650;2023-05-14T03:15:02;41976.69;;;-141.29;100.00
22025;BME280;11176;51.448;6.650;2023-05-14T03:17:29;42000.66;;;-141.29;100.00
22025;BME280;11176;51.448;6.650;2023-05-14T03:19:55;42042.56;;;-141.29;100.00
22025;BME280;11176;51.448;6.650;2023-05-14T03:22:22;42026.59;;;-141.29;100.00
22025;BME280;11176;51.448;6.650;2023-05-14T03:24:48;42070.53;;;-141.29;100.00
22025;BME280;11176;51.448;6.650;2023-05-14T03:27:15;42094.47;;;-141.29;100.00
22025;BME280;11176;51.448;6.650;2023-05-14T03:29:41;42086.50;;;-141.29;100.00
22025;BME280;11176;51.448;6.650;2023-05-14T03:32:08;42086.50;;;-141.29;100.00
22025;BME280;11176;51.448;6.650;2023-05-14T03:34:34;42106.47;;;-141.29;100.00
22025;BME280;11176;51.448;6.650;2023-05-14T03:37:02;42106.47;;;-141.29;100.00
22025;BME280;11176;51.448;6.650;2023-05-14T03:39:28;42102.47;;;-141.29;100.00
22025;BME280;11176;51.448;6.650;2023-05-14T03:41:55;42106.47;;;-141.29;100.00
22025;BME280;11176;51.448;6.650;2023-05-14T03:44:24;42114.44;;;-141.29;100.00
22025;BME280;11176;51.448;6.650;2023-05-14T03:46:51;42120.44;;;-141.29;100.00
22025;BME280;11176;51.448;6.650;2023-05-14T03:49:18;42138.41;;;-141.29;100.00
22025;BME280;11176;51.448;6.650;2023-05-14T03:51:45;42140.41;;;-141.29;100.00
22025;BME280;11176;51.448;6.650;2023-05-14T03:54:12;42160.38;;;-141.29;100.00
22025;BME280;11176;51.448;6.650;2023-05-14T03:56:38;42154.38;;;-141.29;100.00
22025;BME280;11176;51.448;6.650;2023-05-14T03:59:04;42158.38;;;-141.29;100.00
22025;BME280;11176;51.448;6.650;2023-05-14T04:01:31;42142.41;;;-141.29;100.00
22025;BME280;11176;51.448;6.650;2023-05-14T04:03:58;42148.38;;;-141.29;100.00
22025;BME280;11176;51.448;6.650;2023-05-14T04:06:25;42178.34;;;-141.29;100.00
22025;BME280;11176;51.448;6.650;2023-05-14T04:08:51;42170.34;;;-141.29;100.00
22025;BME280;11176;51.448;6.650;2023-05-14T04:11:17;42198.31;;;-141.29;100.00
22025;BME280;11176;51.448;6.650;2023-05-14T04:13:44;42230.25;;;-141.29;100.00
22025;BME280;11176;51.448;6.650;2023-05-14T04:16:10;42224.25;;;-141.29;100.00
22025;BME280;11176;51.448;6.650;2023-05-14T04:18:37;42252.22;;;-141.29;100.00
22025;BME280;11176;51.448;6.650;2023-05-14T04:21:03;42274.16;;;-141.29;100.00
22025;BME280;11176;51.448;6.650;2023-05-14T04:23:30;42270.19;;;-141.29;100.00
22025;BME280;11176;51.448;6.650;2023-05-14T04:25:57;42294.13;;;-141.29;100.00
22025;BME280;11176;51.448;6.650;2023-05-14T04:28:24;42302.13;;;-141.29;100.00
22025;BME280;11176;51.448;6.650;2023-05-14T04:30:50;42314.09;;;-141.29;100.00
22025;BME280;11176;51.448;6.650;2023-05-14T04:33:17;42294.13;;;-141.29;100.00
22025;BME280;11176;51.448;6.650;2023-05-14T04:35:44;42314.09;;;-141.29;100.00
22025;BME280;11176;51.448;6.650;2023-05-14T04:38:11;42338.06;;;-141.29;100.00
22025;BME280;11176;51.448;6.650;2023-05-14T04:40:39;42350.03;;;-141.29;100.00
22025;BME280;11176;51.448;6.650;2023-05-14T04:43:06;42360.03;;;-141.29;100.00
22025;BME280;11176;51.448;6.650;2023-05-14T04:45:33;42381.97;;;-141.29;100.00
22025;BME280;11176;51.448;6.650;2023-05-14T04:47:59;42393.97;;;-141.29;100.00
22025;BME280;11176;51.448;6.650;2023-05-14T04:50:26;42401.94;;;-141.29;100.00
22025;BME280;11176;51.448;6.650;2023-05-14T04:52:52;42403.94;;;-141.29;100.00
22025;BME280;11176;51.448;6.650;2023-05-14T04:55:21;42391.97;;;-141.29;100.00
22025;BME280;11176;51.448;6.650;2023-05-14T04:57:47;42409.94;;;-141.29;100.00
22025;BME280;11176;51.448;6.650;2023-05-14T05:00:15;42423.91;;;-141.29;100.00
22025;BME280;11176;51.448;6.650;2023-05-14T05:02:42;42417.94;;;-141.29;100.00
22025;BME280;11176;51.448;6.650;2023-05-14T05:05:09;42433.91;;;-141.29;100.00
22025;BME280;11176;51.448;6.650;2023-05-14T05:07:35;42425.91;;;-141.29;100.00
22025;BME280;11176;51.448;6.650;2023-05-14T05:10:02;42453.88;;;-141.29;100.00
22025;BME280;11176;51.448;6.650;2023-05-14T05:12:28;42445.88;;;-141.29;100.00
22025;BME280;11176;51.448;6.650;2023-05-14T05:14:55;42453.88;;;-141.29;100.00
22025;BME280;11176;51.448;6.650;2023-05-14T05:17:23;42453.88;;;-141.29;100.00
22025;BME280;11176;51.448;6.650;2023-05-14T05:19:50;42455.88;;;-141.29;100.00
22025;BME280;11176;51.448;6.650;2023-05-14T05:22:18;42481.81;;;-141.29;100.00
22025;BME280;11176;51.448;6.650;2023-05-14T05:24:45;42461.84;;;-141.29;100.00
22025;BME280;11176;51.448;6.650;2023-05-14T05:27:13;42485.81;;;-141.29;100.00
22025;BME280;11176;51.448;6.650;2023-05-14T05:29:40;42509.78;;;-141.29;100.00
22025;BME280;11176;51.448;6.650;2023-05-14T05:32:06;42501.78;;;-141.29;100.00
22025;BME280;11176;51.448;6.650;2023-05-14T05:34:33;42473.84;;;-141.29;100.00
22025;BME280;11176;51.448;6.650;2023-05-14T05:37:01;42513.75;;;-141.29;100.00
22025;BME280;11176;51.448;6.650;2023-05-14T05:39:28;42543.72;;;-141.29;100.00
22025;BME280;11176;51.448;6.650;2023-05-14T05:42:00;42521.75;;;-141.29;100.00
22025;BME280;11176;51.448;6.650;2023-05-14T05:44:27;42509.78;;;-141.29;100.00
22025;BME280;11176;51.448;6.650;2023-05-14T05:46:54;42529.75;;;-141.29;100.00
22025;BME280;11176;51.448;6.650;2023-05-14T05:49:23;42527.75;;;-141.29;100.00
22025;BME280;11176;51.448;6.650;2023-05-14T05:51:49;42539.72;;;-141.29;100.00
22025;BME280;11176;51.448;6.650;2023-05-14T05:54:16;42547.72;;;-141.29;100.00
22025;BME280;11176;51.448;6.650;2023-05-14T05:56:42;42531.72;;;-141.29;100.00
22025;BME280;11176;51.448;6.650;2023-05-14T05:59:09;42529.75;;;-141.29;100.00
22025;BME280;11176;51.448;6.650;2023-05-14T06:01:35;42543.72;;;-141.29;100.00
22025;BME280;11176;51.448;6.650;2023-05-14T06:04:02;42513.75;;;-141.29;100.00
22025;BME280;11176;51.448;6.650;2023-05-14T06:06:31;42529.75;;;-141.29;100.00
22025;BME280;11176;51.448;6.650;2023-05-14T06:08:58;42523.75;;;-141.29;100.00
22025;BME280;11176;51.448;6.650;2023-05-14T06:11:24;42511.78;;;-141.29;100.00
22025;BME280;11176;51.448;6.650;2023-05-14T06:13:53;42521.75;;;-141.29;100.00
22025;BME280;11176;51.448;6.650;2023-05-14T06:16:19;42541.72;;;-141.29;100.00
22025;BME280;11176;51.448;6.650;2023-05-14T06:18:46;42535.72;;;-141.29;100.00
22025;BME280;11176;51.448;6.650;2023-05-14T06:21:12;42501.78;;;-141.29;100.00
22025;BME280;11176;51.448;6.650;2023-05-14T06:23:39;42517.75;;;-141.29;100.00
22025;BME280;11176;51.448;6.650;2023-05-14T06:26:06;42497.78;;;-141.29;100.00
22025;BME280;11176;51.448;6.650;2023-05-14T06:28:33;42493.78;;;-141.29;100.00
22025;BME280;11176;51.448;6.650;2023-05-14T06:30:59;42477.81;;;-141.29;100.00
22025;BME280;11176;51.448;6.650;2023-05-14T06:33:25;42449.88;;;-141.29;100.00
22025;BME280;11176;51.448;6.650;2023-05-14T06:36:02;42465.84;;;-141.29;100.00
22025;BME280;11176;51.448;6.650;2023-05-14T06:38:29;42431.91;;;-141.29;100.00
22025;BME280;11176;51.448;6.650;2023-05-14T06:40:55;42413.94;;;-141.29;100.00
22025;BME280;11176;51.448;6.650;2023-05-14T06:43:22;42401.94;;;-141.29;100.00
22025;BME280;11176;51.448;6.650;2023-05-14T06:45:49;42393.97;;;-141.29;100.00
22025;BME280;11176;51.448;6.650;2023-05-14T06:48:17;42381.97;;;-141.29;100.00
22025;BME280;11176;51.448;6.650;2023-05-14T06:50:47;42401.94;;;-141.29;100.00
22025;BME280;11176;51.448;6.650;2023-05-14T06:53:14;42368.00;;;-141.29;100.00
22025;BME280;11176;51.448;6.650;2023-05-14T06:55:40;42370.00;;;-141.29;100.00
22025;BME280;11176;51.448;6.650;2023-05-14T06:58:07;42393.97;;;-141.29;100.00
22025;BME280;11176;51.448;6.650;2023-05-14T07:00:34;42378.00;;;-141.29;100.00
22025;BME280;11176;51.448;6.650;2023-05-14T07:03:00;42350.03;;;-141.29;100.00
22025;BME280;11176;51.448;6.650;2023-05-14T07:05:27;42389.97;;;-141.29;100.00
22025;BME280;11176;51.448;6.650;2023-05-14T07:07:53;42397.97;;;-141.29;100.00
22025;BME280;11176;51.448;6.650;2023-05-14T07:10:20;42360.03;;;-141.29;100.00
22025;BME280;11176;51.448;6.650;2023-05-14T07:12:47;42376.00;;;-141.29;100.00
22025;BME280;11176;51.448;6.650;2023-05-14T07:15:14;42360.03;;;-141.29;100.00
22025;BME280;11176;51.448;6.650;2023-05-14T07:17:41;42364.00;;;-141.29;100.00
22025;BME280;11176;51.448;6.650;2023-05-14T07:20:08;42378.00;;;-141.29;100.00
22025;BME280;11176;51.448;6.650;2023-05-14T07:22:34;42389.97;;;-141.29;100.00
22025;BME280;11176;51.448;6.650;2023-05-14T07:25:01;42360.03;;;-141.29;100.00
22025;BME280;11176;51.448;6.650;2023-05-14T07:27:28;42330.06;;;-141.29;100.00
22025;BME280;11176;51.448;6.650;2023-05-14T07:29:54;42326.09;;;-141.29;100.00
22025;BME280;11176;51.448;6.650;2023-05-14T07:32:21;42334.06;;;-141.29;99.67
22025;BME280;11176;51.448;6.650;2023-05-14T07:34:47;42314.09;;;-141.29;98.73
22025;BME280;11176;51.448;6.650;2023-05-14T07:37:14;42318.09;;;-141.29;98.37
22025;BME280;11176;51.448;6.650;2023-05-14T07:39:40;42310.09;;;-141.29;97.72
22025;BME280;11176;51.448;6.650;2023-05-14T07:42:07;42258.19;;;-141.29;97.37
22025;BME280;11176;51.448;6.650;2023-05-14T07:44:34;42302.13;;;-141.29;97.09
22025;BME280;11176;51.448;6.650;2023-05-14T07:47:00;42250.22;;;-141.29;96.59
22025;BME280;11176;51.448;6.650;2023-05-14T07:49:27;42232.25;;;-141.29;95.52
22025;BME280;11176;51.448;6.650;2023-05-14T07:51:53;42242.22;;;-141.29;95.02
22025;BME280;11176;51.448;6.650;2023-05-14T07:54:20;42226.25;;;-141.29;94.28
22025;BME280;11176;51.448;6.650;2023-05-14T07:56:46;42206.28;;;-141.29;92.38
22025;BME280;11176;51.448;6.650;2023-05-14T07:59:13;42190.31;;;-141.29;92.01
22025;BME280;11176;51.448;6.650;2023-05-14T08:01:39;42170.34;;;-141.29;91.67
22025;BME280;11176;51.448;6.650;2023-05-14T08:04:06;42158.38;;;-141.29;90.05
22025;BME280;11176;51.448;6.650;2023-05-14T08:06:32;42136.41;;;-141.29;88.85
22025;BME280;11176;51.448;6.650;2023-05-14T08:08:59;42126.44;;;-141.29;87.84
22025;BME280;11176;51.448;6.650;2023-05-14T08:11:25;42104.47;;;-141.29;88.11
22025;BME280;11176;51.448;6.650;2023-05-14T08:13:52;42086.50;;;-141.29;87.65
22025;BME280;11176;51.448;6.650;2023-05-14T08:16:18;42068.53;;;-141.29;87.49
22025;BME280;11176;51.448;6.650;2023-05-14T08:18:45;42058.53;;;-141.29;87.13
22025;BME280;11176;51.448;6.650;2023-05-14T08:21:11;42070.53;;;-141.29;86.70
22025;BME280;11176;51.448;6.650;2023-05-14T08:23:38;42028.59;;;-141.29;85.81
22025;BME280;11176;51.448;6.650;2023-05-14T08:26:05;42030.59;;;-141.29;85.32
22025;BME280;11176;51.448;6.650;2023-05-14T08:28:31;42014.63;;;-141.29;84.16
22025;BME280;11176;51.448;6.650;2023-05-14T08:30:57;41974.69;;;-141.29;83.92
22025;BME280;11176;51.448;6.650;2023-05-14T08:33:24;41998.66;;;-141.29;83.62
22025;BME280;11176;51.448;6.650;2023-05-14T08:35:51;41962.72;;;-141.29;82.64
22025;BME280;11176;51.448;6.650;2023-05-14T08:38:18;41954.75;;;-141.29;82.60
22025;BME280;11176;51.448;6.650;2023-05-14T08:40:57;41976.69;;;-141.29;82.81
22025;BME280;11176;51.448;6.650;2023-05-14T08:43:26;41954.75;;;-141.29;81.09
22025;BME280;11176;51.448;6.650;2023-05-14T08:45:57;41906.81;;;-141.29;79.62
22025;BME280;11176;51.448;6.650;2023-05-14T08:48:25;41900.84;;;-141.29;79.33
22025;BME280;11176;51.448;6.650;2023-05-14T08:50:54;41882.88;;;-141.29;78.56
22025;BME280;11176;51.448;6.650;2023-05-14T08:53:21;41866.91;;;-141.29;78.59
22025;BME280;11176;51.448;6.650;2023-05-14T08:55:49;41886.84;;;-141.29;78.79
22025;BME280;11176;51.448;6.650;2023-05-14T08:58:16;41886.84;;;-141.29;78.47
22025;BME280;11176;51.448;6.650;2023-05-14T09:00:42;41874.88;;;-141.29;78.48
22025;BME280;11176;51.448;6.650;2023-05-14T09:03:09;41858.91;;;-141.29;77.94
22025;BME280;11176;51.448;6.650;2023-05-14T09:05:37;41852.91;;;-141.29;76.96
22025;BME280;11176;51.448;6.650;2023-05-14T09:08:04;41832.97;;;-141.29;75.36
22025;BME280;11176;51.448;6.650;2023-05-14T09:10:30;41850.94;;;-141.29;76.70
22025;BME280;11176;51.448;6.650;2023-05-14T09:12:58;41826.97;;;-141.29;76.41
22025;BME280;11176;51.448;6.650;2023-05-14T09:15:26;41854.91;;;-141.29;76.26
22025;BME280;11176;51.448;6.650;2023-05-14T09:17:55;41854.91;;;-141.29;77.00
22025;BME280;11176;51.448;6.650;2023-05-14T09:20:23;41842.94;;;-141.29;75.93
22025;BME280;11176;51.448;6.650;2023-05-14T09:22:53;41809.00;;;-141.29;73.70
22025;BME280;11176;51.448;6.650;2023-05-14T09:25:25;41809.00;;;-141.29;73.87
22025;BME280;11176;51.448;6.650;2023-05-14T09:27:52;41803.00;;;-141.29;74.49
22025;BME280;11176;51.448;6.650;2023-05-14T09:30:24;41779.06;;;-141.29;73.98
22025;BME280;11176;51.448;6.650;2023-05-14T09:32:53;41803.00;;;-141.29;73.84
22025;BME280;11176;51.448;6.650;2023-05-14T09:35:22;41793.03;;;-141.29;73.62
22025;BME280;11176;51.448;6.650;2023-05-14T09:37:53;41759.09;;;-141.29;71.45
22025;BME280;11176;51.448;6.650;2023-05-14T09:40:21;41763.09;;;-141.29;70.35
22025;BME280;11176;51.448;6.650;2023-05-14T09:42:49;41693.22;;;-141.29;68.61
22025;BME280;11176;51.448;6.650;2023-05-14T09:45:15;41699.22;;;-141.29;67.02
22025;BME280;11176;51.448;6.650;2023-05-14T09:47:42;41691.22;;;-141.29;68.15
22025;BME280;11176;51.448;6.650;2023-05-14T09:50:10;41715.19;;;-141.29;69.39
22025;BME280;11176;51.448;6.650;2023-05-14T09:52:37;41705.19;;;-141.29;69.69
22025;BME280;11176;51.448;6.650;2023-05-14T09:55:04;41675.25;;;-141.29;65.33
22025;BME280;11176;51.448;6.650;2023-05-14T09:57:30;41643.31;;;-141.29;64.42
22025;BME280;11176;51.448;6.650;2023-05-14T09:59:57;41625.34;;;-141.29;63.94
22025;BME280;11176;51.448;6.650;2023-05-14T10:02:26;41639.31;;;-141.29;65.07
22025;BME280;11176;51.448;6.650;2023-05-14T10:04:56;41671.25;;;-141.29;67.41
22025;BME280;11176;51.448;6.650;2023-05-14T10:07:28;41671.25;;;-141.29;67.26
22025;BME280;11176;51.448;6.650;2023-05-14T10:10:01;41643.31;;;-141.29;66.61
22025;BME280;11176;51.448;6.650;2023-05-14T10:12:31;41639.31;;;-141.29;65.15
22025;BME280;11176;51.448;6.650;2023-05-14T10:15:06;41623.34;;;-141.29;64.07
22025;BME280;11176;51.448;6.650;2023-05-14T10:17:36;41581.44;;;-141.29;62.76
22025;BME280;11176;51.448;6.650;2023-05-14T10:20:07;41575.44;;;-141.29;62.58
22025;BME280;11176;51.448;6.650;2023-05-14T10:22:35;41579.44;;;-141.29;62.26
22025;BME280;11176;51.448;6.650;2023-05-14T10:25:02;41565.47;;;-141.29;62.55
22025;BME280;11176;51.448;6.650;2023-05-14T10:27:29;41567.47;;;-141.29;61.83
22025;BME280;11176;51.448;6.650;2023-05-14T10:29:56;41539.53;;;-141.29;61.04
22025;BME280;11176;51.448;6.650;2023-05-14T10:32:24;41523.56;;;-141.29;60.16
22025;BME280;11176;51.448;6.650;2023-05-14T10:34:51;41491.63;;;-141.29;59.92
22025;BME280;11176;51.448;6.650;2023-05-14T10:37:23;41511.56;;;-141.29;60.95
22025;BME280;11176;51.448;6.650;2023-05-14T10:39:52;41495.59;;;-141.29;60.91
22025;BME280;11176;51.448;6.650;2023-05-14T10:42:21;41503.59;;;-141.29;60.16
22025;BME280;11176;51.448;6.650;2023-05-14T10:44:56;41477.63;;;-141.29;58.67
22025;BME280;11176;51.448;6.650;2023-05-14T10:47:27;41415.75;;;-141.29;55.77
22025;BME280;11176;51.448;6.650;2023-05-14T10:49:55;41315.97;;;-141.29;51.12
22025;BME280;11176;51.448;6.650;2023-05-14T10:52:23;41276.03;;;-141.29;51.11
22025;BME280;11176;51.448;6.650;2023-05-14T10:54:57;41240.13;;;-141.29;49.78
22025;BME280;11176;51.448;6.650;2023-05-14T10:57:29;41124.34;;;-141.29;46.96
22025;BME280;11176;51.448;6.650;2023-05-14T10:59:59;41138.31;;;-141.29;48.30
22025;BME280;11176;51.448;6.650;2023-05-14T11:02:30;40904.81;;;-141.29;41.37
22025;BME280;11176;51.448;6.650;2023-05-14T11:05:01;40834.97;;;-141.29;40.71
22025;BME280;11176;51.448;6.650;2023-05-14T11:07:33;40729.19;;;-141.29;39.76
22025;BME280;11176;51.448;6.650;2023-05-14T11:10:08;40593.50;;;-141.29;38.03
22025;BME280;11176;51.448;6.650;2023-05-14T11:12:38;40553.56;;;-141.29;38.75
22025;BME280;11176;51.448;6.650;2023-05-14T11:15:07;40553.56;;;-141.29;40.94
22025;BME280;11176;51.448;6.650;2023-05-14T11:17:39;40511.66;;;-141.29;39.37
22025;BME280;11176;51.448;6.650;2023-05-14T11:20:07;40527.63;;;-141.29;40.66
22025;BME280;11176;51.448;6.650;2023-05-14T11:22:35;40585.50;;;-141.29;42.61
22025;BME280;11176;51.448;6.650;2023-05-14T11:25:03;40533.63;;;-141.29;41.06
22025;BME280;11176;51.448;6.650;2023-05-14T11:27:33;40571.53;;;-141.29;41.70
22025;BME280;11176;51.448;6.650;2023-05-14T11:29:59;40637.41;;;-141.29;42.88
22025;BME280;11176;51.448;6.650;2023-05-14T11:32:26;40669.31;;;-141.29;42.85
22025;BME280;11176;51.448;6.650;2023-05-14T11:34:53;40669.31;;;-141.29;41.58
22025;BME280;11176;51.448;6.650;2023-05-14T11:37:19;40693.28;;;-141.29;40.78
22025;BME280;11176;51.448;6.650;2023-05-14T11:39:50;40721.22;;;-141.29;41.16
22025;BME280;11176;51.448;6.650;2023-05-14T11:42:18;40513.66;;;-141.29;35.69
22025;BME280;11176;51.448;6.650;2023-05-14T11:44:50;40294.16;;;-141.29;32.71
22025;BME280;11176;51.448;6.650;2023-05-14T11:47:18;40278.22;;;-141.29;33.16
22025;BME280;11176;51.448;6.650;2023-05-14T11:49:46;40314.13;;;-141.29;34.16
22025;BME280;11176;51.448;6.650;2023-05-14T11:52:14;40228.31;;;-141.29;32.54
22025;BME280;11176;51.448;6.650;2023-05-14T11:54:42;40348.03;;;-141.29;34.65
22025;BME280;11176;51.448;6.650;2023-05-14T11:57:11;40318.13;;;-141.29;33.76
22025;BME280;11176;51.448;6.650;2023-05-14T11:59:38;40330.09;;;-141.29;33.36
22025;BME280;11176;51.448;6.650;2023-05-14T12:02:09;40318.13;;;-141.29;33.53
22025;BME280;11176;51.448;6.650;2023-05-14T12:04:36;40377.97;;;-141.29;33.94
22025;BME280;11176;51.448;6.650;2023-05-14T12:07:14;40336.06;;;-141.29;32.32
22025;BME280;11176;51.448;6.650;2023-05-14T12:09:45;40142.53;;;-141.29;30.66
22025;BME280;11176;51.448;6.650;2023-05-14T12:12:20;40088.66;;;-141.29;30.41
22025;BME280;11176;51.448;6.650;2023-05-14T12:14:48;40026.81;;;-141.29;30.11
22025;BME280;11176;51.448;6.650;2023-05-14T12:17:17;40046.75;;;-141.29;30.49
22025;BME280;11176;51.448;6.650;2023-05-14T12:19:46;39871.19;;;-141.29;29.26
22025;BME280;11176;51.448;6.650;2023-05-14T12:22:14;39737.50;;;-141.29;29.16
22025;BME280;11176;51.448;6.650;2023-05-14T12:25:01;39591.88;;;-141.29;28.78
22025;BME280;11176;51.448;6.650;2023-05-14T12:27:29;39551.97;;;-141.29;29.19
22025;BME280;11176;51.448;6.650;2023-05-14T12:29:58;39400.34;;;-141.29;28.32
22025;BME280;11176;51.448;6.650;2023-05-14T12:32:45;39256.72;;;-141.29;27.95
22025;BME280;11176;51.448;6.650;2023-05-14T12:35:12;39157.00;;;-141.29;27.92
22025;BME280;11176;51.448;6.650;2023-05-14T12:37:39;39145.03;;;-141.29;28.50